ADDS METAR Data INFO
IDs: Format: Raw Decoded Include TAF

Data at: 0157 UTC 17 Oct 2017

PHTO 170153Z 29008KT 10SM -RA FEW085 24/20 A2996 RMK AO2 RAB50 SLP145 P0000 T02440200
PHTO 170053Z 36005KT 10SM FEW032 BKN060 OVC075 23/21 A2997 RMK AO2 PK WND 06029/0038 RAB39E53 SLP148 P0005 T02330206
PHTO 170046Z 04008G29KT 2SM -RA FEW025 BKN060 OVC075 24/19 A2997 RMK AO2 PK WND 06029/0038 RAB39 P0005 T02390189
PHTO 162353Z 34008KT 10SM FEW046 FEW055 SCT085 27/18 A2997 RMK AO2 SLP149 60000 T02720178 10283 20256 58019
PHTO 162253Z 03011KT 10SM SCT045 BKN070 28/20 A2999 RMK AO2 SLP155 T02780200
PHTO 162153Z 06011KT 10SM SCT040 BKN075 28/19 A3002 RMK AO2 SLP162 T02780189
PHTO 162053Z 05015KT 10SM FEW033 SCT080 BKN090 27/20 A3003 RMK AO2 RAE1954 SLP167 P0000 60000 T02670200 58002
PHTO 161953Z 05009KT 10SM -RA SCT033 BKN042 OVC070 27/19 A3004 RMK AO2 RAB45 SLP170 P0000 T02670194
PHTO 161853Z 01008KT 10SM SCT035 BKN043 BKN050 26/19 A3004 RMK AO2 SLP171 T02610189
PHTO 161753Z 05004KT 10SM SCT035 26/19 A3003 RMK AO2 SLP169 60005 T02560194 10256 20206 53017
PHTO 161653Z 05007KT 10SM SCT036 24/19 A3001 RMK AO2 SLP161 T02440189
PHTO 161553Z AUTO 08006KT 10SM BKN034 BKN085 22/19 A2999 RMK AO2 SLP153 T02170194 TSNO
PHTO 161453Z AUTO 00000KT 10SM SCT033 SCT041 21/19 A2998 RMK AO2 SLP152 60005 T02110194 55005 TSNO
PHTO 161353Z AUTO 07004KT 10SM BKN095 23/19 A2998 RMK AO2 RAB09E21 SLP150 P0001 T02280194 TSNO
PHTO 161253Z AUTO 17003KT 10SM SCT030 SCT040 22/20 A2998 RMK AO2 RAE07 SLP151 P0004 T02170200 TSNO
PHTO 161203Z AUTO 16003KT 4SM -RA BR SCT027 BKN035 OVC090 22/20 A2999 RMK AO2 P0004 T02220200 TSNO
PHTO 161153Z AUTO 13006KT 5SM -RA BKN029 BKN043 22/19 A3000 RMK AO2 RAB42 SLP157 P0005 60007 70175 T02220194 10244 20217 55007 TSNO
PHTO 161148Z AUTO 09007G22KT 3SM RA BKN029 BKN075 22/19 A2999 RMK AO2 RAB42 P0001 TSNO
PHTO 161053Z AUTO 05010KT 10SM FEW027 SCT034 BKN044 24/20 A3000 RMK AO2 RAE00B23E34 SLP158 P0001 T02390200 TSNO
PHTO 160953Z AUTO 01005G19KT 6SM -RA FEW029 SCT039 BKN095 23/19 A3002 RMK AO2 RAB48 SLP163 P0001 T02330194 402780211 TSNO
PHTO 160853Z AUTO 07006KT 10SM SCT029 SCT042 BKN070 24/20 A3003 RMK AO2 SLP166 T02390200 58001 TSNO
PHTO 160805Z AUTO 07008KT 10SM SCT029 SCT040 23/20 A3003 RMK AO2 T02330200 TSNO
PHTO 160753Z 07006KT 10SM BKN029 BKN039 BKN048 24/20 A3003 RMK AO2 SLP168 T02390200
PHTO 160748Z 07008KT 10SM BKN029 BKN039 BKN048 23/20 A3003 RMK AO2
PHTO 160653Z 06006KT 10SM SCT033 SCT050 SCT070 24/20 A3003 RMK AO2 SLP168 T02390200
PHTO 160553Z 29003KT 10SM BKN031 BKN040 23/21 A3001 RMK AO2 RAE0454 SLP162 P0000 60001 T02280211 10278 20228 53018
PHTO 160522Z 24003KT 10SM BKN031 BKN039 OVC070 23/21 A3000 RMK AO2 RAE0454 P0000 T02280206
PHTO 160512Z 00000KT 10SM BKN029 OVC036 23/21 A3000 RMK AO2 RAE0454 P0000 T02330206
PHTO 160453Z 27004KT 10SM -RA SCT065 23/21 A2999 RMK AO2 RAB0359E14B45 SLP154 P0001 T02280206
PHTO 160353Z COR 30006KT 10SM FEW034 SCT065 24/20 A2997 RMK AO2 SLP147 T02390200 TSNO
PHTO 160253Z AUTO 35008KT 10SM FEW036 OVC070 25/20 A2996 RMK AO2 SLP144 T02500200 53002 TSNO
PHTO 160153Z 04008KT 10SM FEW031 BKN041 27/19 A2995 RMK AO2 SLP139 T02720194
PHTO 160053Z 02010KT 360V060 10SM SCT034 BKN046 28/20 A2994 RMK AO2 SLP137 T02780200
PHTO 152353Z 01007KT 10SM SCT035 BKN046 28/20 A2995 RMK AO2 SLP141 60057 T02780200 10278 20211 56023
PHTO 152253Z COR 03008KT 10SM SCT035 28/21 A2997 RMK AO2 SLP148 T02780206
PHTO 152153Z 05010KT 10SM BKN033 28/22 A2999 RMK AO2 RAB2055E04 SLP155 P0000 T02780217
PHTO 152114Z 25005KT 10SM SCT027 BKN048 OVC100 25/22 A3001 RMK AO2 RAB2055E04 P0000 T02500222
PHTO 152053Z 21003KT 10SM BKN027 OVC047 24/22 A3002 RMK AO2 RAB05E49 SLP164 P0002 60057 T02440217 50002
PHTO 151953Z 27007KT 7SM BKN024 BKN035 OVC046 23/22 A3003 RMK AO2 RAE33 SLP167 P0009 T02330217
PHTO 151938Z 28008KT 4SM BR BKN025 BKN032 OVC050 23/22 A3003 RMK AO2 RAE33 P0009 T02280217
PHTO 151926Z 28007KT 4SM -RA BR SCT025 BKN036 OVC060 22/21 A3002 RMK AO2 P0009 T02220211
PHTO 151902Z 27011KT 2SM -RA BR FEW018 BKN043 OVC050 22/21 A3002 RMK AO2 P0005 T02170211
PHTO 151853Z 29010KT 2SM +RA BR FEW018 BKN029 OVC048 22/21 A3002 RMK AO2 SLP165 P0046 T02170206
PHTO 151753Z 28009KT 2SM +RA BR FEW015 BKN023 OVC034 22/21 A3001 RMK AO2 SLP162 P0032 60110 T02170211 10233 20217 53015
PHTO 151750Z 29006KT 2SM +RA BR FEW013 BKN023 OVC032 22/21 A3001 RMK AO2 P0024
PHTO 151723Z 27005KT 1 3/4SM RA BR SCT012 BKN023 OVC070 22/21 A3000 RMK AO2 VIS 3/4V5 P0001 T02170206
PHTO 151716Z 26006KT 5SM -RA BR FEW016 BKN029 OVC070 22/21 A3000 RMK AO2 P0000 T02170206
PHTO 151657Z 23006KT 5SM -RA BR SCT017 BKN030 OVC070 22/21 A2999 RMK AO2 P0000 T02220211
PHTO 151653Z 22005KT 2 1/2SM -RA BR BKN019 BKN027 OVC038 22/21 A2999 RMK AO2 RAB1556 SLP154 P0002 T02220211
PHTO 151625Z 03008KT 360V080 2SM -RA BR FEW011 BKN038 OVC047 23/22 A2998 RMK AO2 RAB1556 P0001 T02280217
PHTO 151616Z 35003KT 6SM -RA BR FEW013 SCT027 OVC048 23/22 A2997 RMK AO2 RAB1556 P0001 T02280217
PHTO 151553Z AUTO 07013KT 10SM FEW016 BKN027 OVC042 23/21 A2997 RMK AO2 SLP147 T02280211 TSNO
PHTO 151551Z AUTO 07015KT 10SM FEW020 BKN025 OVC042 23/21 A2997 RMK AO2 TSNO
PHTO 151453Z AUTO 14005KT 10SM FEW016 SCT022 OVC035 23/22 A2994 RMK AO2 RAE50 SLP138 P0036 60076 T02280217 55004 TSNO
PHTO 151443Z AUTO 13009G18KT 3SM -RA BR SCT016 BKN025 OVC033 23/22 A2994 RMK AO2 P0036 T02280217 TSNO
PHTO 151433Z AUTO 11018G25KT 1 3/4SM +RA BR SCT017 BKN023 OVC034 23/22 A2994 RMK AO2 P0019 T02280217 TSNO
PHTO 151412Z AUTO VRB05KT 4SM -RA BR BKN017 OVC024 22/22 A2994 RMK AO2 P0009 T02220217 TSNO
PHTO 151402Z AUTO 25004KT 2SM RA BR BKN019 BKN026 OVC041 22/22 A2993 RMK AO2 VIS 1V5 P0006 T02220217 TSNO